Time;durP1;ratioP1;P1;durP2;ratioP2;P2;SDS_P1;SDS_P2;PMS_P1;PMS_P2;Temp;Humidity;BMP_temperature;BMP_pressure;BME280_temperature;BME280_humidity;BME280_pressure;Samples;Min_cycle;Max_cycle;Signal;HPM_P1;HPM_P2
2022/11/11 00:00:19;;;;;;;4.10;3.27;;;;;;;;;;5129072;27;20223;-36
2022/11/11 00:02:48;;;;;;;3.97;3.57;;;;;;;;;;5125618;27;20633;-32
2022/11/11 00:05:15;;;;;;;4.43;3.20;;;;;;;;;;5126250;27;20211;-34
2022/11/11 00:07:42;;;;;;;4.60;3.23;;;;;;;;;;5127899;27;20203;-33
2022/11/11 00:10:10;;;;;;;3.50;3.20;;;;;;;;;;5130625;27;20286;-33
2022/11/11 00:12:39;;;;;;;4.57;3.43;;;;;;;;;;5137112;27;20309;-34
2022/11/11 00:15:07;;;;;;;4.87;3.20;;;;;;;;;;5130143;27;20293;-34
2022/11/11 00:25:52;;;;;;;3.03;2.63;;;;;;;;;;5139850;27;20226;-34
2022/11/11 00:28:20;;;;;;;3.53;2.70;;;;;;;;;;5125724;27;20206;-34
2022/11/11 00:30:47;;;;;;;4.33;3.03;;;;;;;;;;5118644;27;20229;-30
2022/11/11 00:33:15;;;;;;;5.10;3.03;;;;;;;;;;5124858;27;20237;-35
2022/11/11 00:35:54;;;;;;;5.03;3.33;;;;;;;;;;5100595;27;20841;-34
2022/11/11 00:41:05;;;;;;;3.70;3.17;;;;;;;;;;5112404;27;20222;-33
2022/11/11 00:43:34;;;;;;;3.80;3.40;;;;;;;;;;5098401;27;20196;-30
2022/11/11 00:51:27;;;;;;;6.53;4.70;;;;;;;;;;5106579;27;20234;-31
2022/11/11 00:53:54;;;;;;;5.57;3.87;;;;;;;;;;5104060;27;20224;-33
2022/11/11 00:56:22;;;;;;;4.57;3.63;;;;;;;;;;5115580;27;20211;-33
2022/11/11 00:58:51;;;;;;;4.43;3.57;;;;;;;;;;5106111;27;20287;-33
2022/11/11 01:01:18;;;;;;;3.83;3.50;;;;;;;;;;5113348;27;20306;-34
2022/11/11 01:03:45;;;;;;;3.50;3.20;;;;;;;;;;5113841;27;20272;-32
2022/11/11 01:06:13;;;;;;;4.77;3.27;;;;;;;;;;5102820;27;20210;-29
2022/11/11 01:08:41;;;;;;;4.17;3.23;;;;;;;;;;5108218;27;20203;-34
2022/11/11 01:11:12;;;;;;;3.73;3.13;;;;;;;;;;5117408;27;20314;-35
2022/11/11 01:13:39;;;;;;;3.60;3.30;;;;;;;;;;5106657;28;20220;-33
2022/11/11 01:16:09;;;;;;;4.97;3.60;;;;;;;;;;5102552;27;20197;-32
2022/11/11 01:18:36;;;;;;;5.70;3.60;;;;;;;;;;5108524;27;20231;-37
2022/11/11 01:21:05;;;;;;;4.03;3.47;;;;;;;;;;5110748;27;20220;-36
2022/11/11 01:23:33;;;;;;;4.33;3.70;;;;;;;;;;5110927;28;20196;-33
2022/11/11 01:26:03;;;;;;;4.03;3.40;;;;;;;;;;5114445;27;20203;-33
2022/11/11 01:28:30;;;;;;;6.10;3.13;;;;;;;;;;5113675;27;20200;-34
2022/11/11 01:31:01;;;;;;;4.23;3.43;;;;;;;;;;5098531;27;20223;-30
2022/11/11 01:33:30;;;;;;;4.30;3.23;;;;;;;;;;5118977;27;20224;-33
2022/11/11 01:35:57;;;;;;;4.83;3.57;;;;;;;;;;5123045;27;20199;-36
2022/11/11 01:38:24;;;;;;;4.83;3.17;;;;;;;;;;5139201;27;20202;-33
2022/11/11 01:40:51;;;;;;;5.40;3.30;;;;;;;;;;5143672;27;20224;-31
2022/11/11 01:43:20;;;;;;;4.27;3.50;;;;;;;;;;5134499;27;20196;-32
2022/11/11 01:45:58;;;;;;;4.33;3.17;;;;;;;;;;5122450;27;20210;-32
2022/11/11 01:51:20;;;;;;;3.40;3.10;;;;;;;;;;5116248;27;20231;-34
2022/11/11 01:53:49;;;;;;;4.27;3.20;;;;;;;;;;5111648;27;20215;-33
2022/11/11 01:56:17;;;;;;;4.83;3.27;;;;;;;;;;5122556;27;20203;-34
2022/11/11 01:58:44;;;;;;;3.27;2.90;;;;;;;;;;5112439;27;20204;-33
2022/11/11 02:01:11;;;;;;;5.20;3.50;;;;;;;;;;5120035;27;20226;-34
2022/11/11 02:05:40;;;;;;;4.63;3.27;;;;;;;;;;5111783;28;20199;-34
2022/11/11 02:06:29;;;;;;;4.50;2.90;;;;;;;;;;5121090;27;20207;-30
2022/11/11 02:08:56;;;;;;;4.43;3.50;;;;;;;;;;5113258;27;20188;-32
2022/11/11 02:16:50;;;;;;;3.20;2.87;;;;;;;;;;5121550;28;20344;-33
2022/11/11 02:19:22;;;;;;;3.73;2.63;;;;;;;;;;5116272;28;20208;-30
2022/11/11 02:21:53;;;;;;;3.17;2.87;;;;;;;;;;5122870;28;20250;-31
2022/11/11 02:24:22;;;;;;;3.40;2.93;;;;;;;;;;5116575;28;20196;-33
2022/11/11 02:26:49;;;;;;;7.97;4.27;;;;;;;;;;5126096;28;20226;-30
2022/11/11 02:29:19;;;;;;;3.07;2.77;;;;;;;;;;5115830;28;20207;-31
2022/11/11 02:31:46;;;;;;;3.53;3.10;;;;;;;;;;5109267;28;20288;-34
2022/11/11 02:34:13;;;;;;;4.37;3.23;;;;;;;;;;5120091;28;20215;-35
2022/11/11 02:36:40;;;;;;;4.83;2.90;;;;;;;;;;5117891;28;20200;-32
2022/11/11 02:39:07;;;;;;;3.30;2.80;;;;;;;;;;5123380;28;20210;-33
2022/11/11 02:44:21;;;;;;;3.03;2.57;;;;;;;;;;5109493;28;20210;-34
2022/11/11 02:46:48;;;;;;;3.23;2.93;;;;;;;;;;5115011;28;20208;-36
2022/11/11 02:49:15;;;;;;;3.40;2.90;;;;;;;;;;5104587;28;20194;-33
2022/11/11 02:51:42;;;;;;;3.40;3.07;;;;;;;;;;5109319;28;20256;-30
2022/11/11 02:54:10;;;;;;;3.13;2.80;;;;;;;;;;5121776;28;20244;-34
2022/11/11 02:59:23;;;;;;;5.17;3.63;;;;;;;;;;5114763;28;20317;-31
2022/11/11 03:01:50;;;;;;;4.43;2.90;;;;;;;;;;5120656;28;20223;-33
2022/11/11 03:04:17;;;;;;;4.20;2.87;;;;;;;;;;5112911;28;20197;-36
2022/11/11 03:06:44;;;;;;;3.50;3.20;;;;;;;;;;5117238;28;20217;-34
2022/11/11 03:09:11;;;;;;;3.40;2.53;;;;;;;;;;5115580;28;20199;-35
2022/11/11 03:11:40;;;;;;;2.67;2.47;;;;;;;;;;5114446;28;20228;-32
2022/11/11 03:14:07;;;;;;;3.20;2.90;;;;;;;;;;5111054;28;20227;-33
2022/11/11 03:19:20;;;;;;;2.83;2.60;;;;;;;;;;5109136;27;20236;-32
2022/11/11 03:21:47;;;;;;;3.03;2.50;;;;;;;;;;5113264;27;20231;-33
2022/11/11 03:24:15;;;;;;;2.83;2.60;;;;;;;;;;5117565;27;20192;-34
2022/11/11 03:26:44;;;;;;;4.00;2.77;;;;;;;;;;5107805;27;20228;-33
2022/11/11 03:29:11;;;;;;;2.97;2.50;;;;;;;;;;5112420;27;20210;-33
2022/11/11 03:31:39;;;;;;;3.27;2.97;;;;;;;;;;5128940;27;20229;-36
2022/11/11 03:34:18;;;;;;;3.30;3.00;;;;;;;;;;5361833;22;20229;-32
2022/11/11 03:39:30;;;;;;;4.10;2.80;;;;;;;;;;5062533;28;20208;-32
2022/11/11 03:41:58;;;;;;;3.20;2.53;;;;;;;;;;5071938;28;20602;-32
2022/11/11 03:44:27;;;;;;;3.07;2.73;;;;;;;;;;5064523;28;20197;-31
2022/11/11 03:46:54;;;;;;;2.50;2.30;;;;;;;;;;5069101;28;20304;-31
2022/11/11 03:49:21;;;;;;;2.33;2.13;;;;;;;;;;5065205;28;20202;-31
2022/11/11 03:51:48;;;;;;;3.87;2.63;;;;;;;;;;5068392;28;20221;-31
2022/11/11 03:54:15;;;;;;;3.13;2.50;;;;;;;;;;5071861;28;20236;-31
2022/11/11 03:56:42;;;;;;;2.03;1.87;;;;;;;;;;5074333;28;20208;-31
2022/11/11 03:59:11;;;;;;;2.77;2.57;;;;;;;;;;5060210;28;20205;-30
2022/11/11 04:18:04;;;;;;;2.90;2.33;;;;;;;;;;5073566;28;20220;-32
2022/11/11 04:23:16;;;;;;;2.90;2.70;;;;;;;;;;5063567;28;20204;-30
2022/11/11 04:25:48;;;;;;;3.10;2.80;;;;;;;;;;5066899;28;20236;-30
2022/11/11 04:31:02;;;;;;;4.63;2.83;;;;;;;;;;5062799;28;20693;-30
2022/11/11 04:33:29;;;;;;;3.80;3.00;;;;;;;;;;5071673;28;20217;-31
2022/11/11 04:35:56;;;;;;;4.17;2.97;;;;;;;;;;5066428;28;20205;-31
2022/11/11 04:41:10;;;;;;;4.00;3.00;;;;;;;;;;5091286;28;20223;-34
2022/11/11 04:45:26;;;;;;;2.93;2.63;;;;;;;;;;5079321;28;20201;-31
2022/11/11 04:46:24;;;;;;;2.73;2.53;;;;;;;;;;5054971;28;20202;-31
2022/11/11 04:48:51;;;;;;;3.63;2.73;;;;;;;;;;5076982;28;20239;-30
2022/11/11 04:51:18;;;;;;;2.43;2.23;;;;;;;;;;5063591;28;20232;-32
2022/11/11 04:53:46;;;;;;;3.97;2.43;;;;;;;;;;5071109;28;20231;-33
2022/11/11 05:04:24;;;;;;;3.03;2.63;;;;;;;;;;5049656;28;20217;-31
2022/11/11 05:09:36;;;;;;;3.20;2.90;;;;;;;;;;5086790;28;20393;-30
2022/11/11 05:12:03;;;;;;;3.73;2.67;;;;;;;;;;5090893;28;20232;-31
2022/11/11 05:22:46;;;;;;;2.73;2.30;;;;;;;;;;5066672;28;20206;-29
2022/11/11 05:25:24;;;;;;;4.20;2.40;;;;;;;;;;5086537;28;20281;-30
2022/11/11 05:27:52;;;;;;;4.17;2.63;;;;;;;;;;5080962;28;20655;-31
2022/11/11 05:30:22;;;;;;;2.73;2.47;;;;;;;;;;5065527;28;20304;-30
2022/11/11 05:32:51;;;;;;;2.53;2.33;;;;;;;;;;5067755;28;20216;-32
2022/11/11 05:35:18;;;;;;;3.37;2.50;;;;;;;;;;5092021;28;20230;-31
2022/11/11 05:38:19;;;;;;;2.37;2.17;;;;;;;;;;5106580;28;20299;-31
2022/11/11 05:40:34;;;;;;;9.87;2.93;;;;;;;;;;5109826;28;20258;-31
2022/11/11 05:43:01;;;;;;;2.60;2.40;;;;;;;;;;5110406;28;20203;-32
2022/11/11 05:45:29;;;;;;;3.20;2.90;;;;;;;;;;5107424;28;20206;-30
2022/11/11 05:48:01;;;;;;;3.73;2.87;;;;;;;;;;5108607;28;20287;-31
2022/11/11 05:50:28;;;;;;;2.50;2.07;;;;;;;;;;5102924;28;20220;-30
2022/11/11 05:52:55;;;;;;;3.50;2.40;;;;;;;;;;5109286;28;20296;-32
2022/11/11 05:55:22;;;;;;;2.70;2.47;;;;;;;;;;5109595;28;20224;-33
2022/11/11 05:57:50;;;;;;;2.77;2.53;;;;;;;;;;5105247;28;20204;-31
2022/11/11 06:00:17;;;;;;;2.90;2.60;;;;;;;;;;5099672;28;20220;-30
2022/11/11 06:02:45;;;;;;;4.03;3.40;;;;;;;;;;5109102;28;20215;-31
2022/11/11 06:05:13;;;;;;;4.43;3.27;;;;;;;;;;5104434;28;20200;-32
2022/11/11 06:07:40;;;;;;;2.83;2.63;;;;;;;;;;5107226;28;20295;-30
2022/11/11 06:13:03;;;;;;;2.50;2.30;;;;;;;;;;5100821;28;20207;-29
2022/11/11 06:15:31;;;;;;;2.80;2.60;;;;;;;;;;5110058;28;20241;-33
2022/11/11 06:17:59;;;;;;;2.57;2.33;;;;;;;;;;5110402;28;20220;-32
2022/11/11 06:20:27;;;;;;;2.40;2.20;;;;;;;;;;5100597;28;20287;-32
2022/11/11 06:22:58;;;;;;;4.33;2.60;;;;;;;;;;5106943;28;20210;-32
2022/11/11 06:28:10;;;;;;;3.00;2.60;;;;;;;;;;5101192;28;20203;-34
2022/11/11 06:30:37;;;;;;;2.90;2.27;;;;;;;;;;5109524;28;20223;-31
2022/11/11 06:33:06;;;;;;;3.13;2.13;;;;;;;;;;5093495;28;20215;-32
2022/11/11 06:35:35;;;;;;;3.13;2.40;;;;;;;;;;5098127;28;20216;-30
2022/11/11 06:38:02;;;;;;;2.87;2.37;;;;;;;;;;5106549;28;20284;-31
2022/11/11 06:40:30;;;;;;;2.10;1.93;;;;;;;;;;5108444;28;20216;-32
2022/11/11 06:42:58;;;;;;;2.70;2.50;;;;;;;;;;5110410;28;20196;-31
2022/11/11 06:45:25;;;;;;;2.07;1.87;;;;;;;;;;5102415;28;20274;-29
2022/11/11 06:47:52;;;;;;;2.87;2.20;;;;;;;;;;5103936;28;20203;-30
2022/11/11 06:50:19;;;;;;;2.67;2.47;;;;;;;;;;5109942;28;20224;-31
2022/11/11 06:52:48;;;;;;;3.57;2.30;;;;;;;;;;5116696;28;20287;-29
2022/11/11 06:55:15;;;;;;;2.07;1.97;;;;;;;;;;5110178;28;20212;-30
2022/11/11 06:57:44;;;;;;;2.10;2.00;;;;;;;;;;5112546;28;20218;-32
2022/11/11 07:00:12;;;;;;;2.60;2.40;;;;;;;;;;5112494;28;20219;-31
2022/11/11 07:02:39;;;;;;;2.40;2.20;;;;;;;;;;5111992;28;20200;-31
2022/11/11 07:05:07;;;;;;;2.53;2.30;;;;;;;;;;5102015;28;20204;-35
2022/11/11 07:07:34;;;;;;;3.20;2.40;;;;;;;;;;5110395;28;20192;-32
2022/11/11 07:10:06;;;;;;;2.77;2.57;;;;;;;;;;5115804;28;20230;-29
2022/11/11 07:12:33;;;;;;;2.43;2.23;;;;;;;;;;5115938;28;20200;-31
2022/11/11 07:15:03;;;;;;;3.53;2.30;;;;;;;;;;5102323;28;20227;-31
2022/11/11 07:17:30;;;;;;;4.00;2.27;;;;;;;;;;5111632;28;20252;-30
2022/11/11 07:19:57;;;;;;;2.27;2.10;;;;;;;;;;5107830;28;20337;-29
2022/11/11 07:22:24;;;;;;;2.27;1.77;;;;;;;;;;5112473;28;20195;-32
2022/11/11 07:24:52;;;;;;;3.83;2.30;;;;;;;;;;5112716;28;20203;-29
2022/11/11 07:27:20;;;;;;;2.40;2.20;;;;;;;;;;5111905;28;20295;-29
2022/11/11 07:29:48;;;;;;;2.40;2.20;;;;;;;;;;5102875;28;20235;-30
2022/11/11 07:32:16;;;;;;;2.40;2.20;;;;;;;;;;5113363;28;20204;-28
2022/11/11 07:34:43;;;;;;;2.40;2.20;;;;;;;;;;5112769;28;20232;-31
2022/11/11 07:37:10;;;;;;;3.23;2.93;;;;;;;;;;5108853;28;20211;-31
2022/11/11 07:39:37;;;;;;;2.63;2.43;;;;;;;;;;5114652;28;20222;-29
2022/11/11 07:42:04;;;;;;;3.00;2.70;;;;;;;;;;5114797;28;20269;-31
2022/11/11 07:44:33;;;;;;;4.77;2.47;;;;;;;;;;5107762;28;20201;-30
2022/11/11 07:47:00;;;;;;;3.57;2.90;;;;;;;;;;5109188;28;20234;-31
2022/11/11 07:49:27;;;;;;;3.80;3.47;;;;;;;;;;5111945;28;20204;-29
2022/11/11 07:51:54;;;;;;;3.53;3.13;;;;;;;;;;5106161;28;20316;-31
2022/11/11 07:54:21;;;;;;;5.07;2.60;;;;;;;;;;5114567;28;20319;-30
2022/11/11 07:56:49;;;;;;;4.23;3.40;;;;;;;;;;5102519;28;20283;-30
2022/11/11 07:59:16;;;;;;;6.83;3.60;;;;;;;;;;5106689;28;20281;-29
2022/11/11 08:01:45;;;;;;;3.57;2.83;;;;;;;;;;5108765;28;20251;-32
2022/11/11 08:04:12;;;;;;;3.90;3.07;;;;;;;;;;5113646;28;20235;-31
2022/11/11 08:06:39;;;;;;;3.43;3.13;;;;;;;;;;5109585;28;20214;-31
2022/11/11 08:09:06;;;;;;;3.50;3.20;;;;;;;;;;5113089;28;20207;-31
2022/11/11 08:14:18;;;;;;;4.20;3.47;;;;;;;;;;5107086;28;20221;-32
2022/11/11 08:16:47;;;;;;;4.23;3.50;;;;;;;;;;5112654;28;20617;-32
2022/11/11 08:19:14;;;;;;;6.47;4.00;;;;;;;;;;5111904;28;20243;-31
2022/11/11 08:21:41;;;;;;;5.53;3.77;;;;;;;;;;5105596;28;20315;-33
2022/11/11 08:24:08;;;;;;;4.80;3.73;;;;;;;;;;5113959;28;20203;-32
2022/11/11 08:26:35;;;;;;;6.10;4.17;;;;;;;;;;5112169;28;20206;-31
2022/11/11 08:29:02;;;;;;;4.67;3.63;;;;;;;;;;5102260;28;20205;-31
2022/11/11 08:31:30;;;;;;;5.80;3.43;;;;;;;;;;5106720;28;20249;-29
2022/11/11 08:33:59;;;;;;;6.03;3.93;;;;;;;;;;5113456;28;20243;-31
2022/11/11 08:36:27;;;;;;;11.50;4.40;;;;;;;;;;5103068;28;20200;-29
2022/11/11 08:38:54;;;;;;;4.60;3.73;;;;;;;;;;5112735;28;20219;-30
2022/11/11 08:41:22;;;;;;;7.13;3.60;;;;;;;;;;5112667;28;20227;-30
2022/11/11 08:43:52;;;;;;;4.57;3.30;;;;;;;;;;5105507;28;20204;-29
2022/11/11 08:46:19;;;;;;;5.67;3.73;;;;;;;;;;5099854;28;20288;-30
2022/11/11 08:48:46;;;;;;;4.43;3.83;;;;;;;;;;5107718;28;20298;-30
2022/11/11 08:51:15;;;;;;;7.30;4.30;;;;;;;;;;5104084;28;20315;-30
2022/11/11 08:53:42;;;;;;;5.33;3.80;;;;;;;;;;5112903;28;20200;-31
2022/11/11 08:56:11;;;;;;;6.03;4.20;;;;;;;;;;5102939;28;20226;-31
2022/11/11 08:58:38;;;;;;;6.73;4.63;;;;;;;;;;5106711;28;20256;-33
2022/11/11 09:01:05;;;;;;;7.17;4.40;;;;;;;;;;5107161;28;20306;-32
2022/11/11 09:03:32;;;;;;;5.07;4.00;;;;;;;;;;5112835;28;20282;-31
2022/11/11 09:06:00;;;;;;;5.40;4.50;;;;;;;;;;5102422;28;20208;-33
2022/11/11 09:08:28;;;;;;;7.07;4.33;;;;;;;;;;5113170;28;20226;-32
2022/11/11 09:10:55;;;;;;;6.63;4.77;;;;;;;;;;5108904;28;20280;-32
2022/11/11 09:13:23;;;;;;;6.20;4.40;;;;;;;;;;5103735;28;20200;-31
2022/11/11 09:15:53;;;;;;;8.50;4.80;;;;;;;;;;5104803;28;20224;-31
2022/11/11 09:18:20;;;;;;;7.30;4.40;;;;;;;;;;5104608;27;20200;-32
2022/11/11 09:20:47;;;;;;;4.77;4.27;;;;;;;;;;5106992;28;20224;-32
2022/11/11 09:23:15;;;;;;;10.10;4.33;;;;;;;;;;5109157;28;20214;-31
2022/11/11 09:25:43;;;;;;;4.37;3.97;;;;;;;;;;5108389;28;20218;-28
2022/11/11 09:28:10;;;;;;;4.67;3.90;;;;;;;;;;5106558;28;20205;-29
2022/11/11 09:30:37;;;;;;;7.47;4.23;;;;;;;;;;5107584;28;20277;-30
2022/11/11 09:33:11;;;;;;;6.37;4.50;;;;;;;;;;5113512;28;20242;-30
2022/11/11 09:35:40;;;;;;;5.53;3.90;;;;;;;;;;5094142;28;20223;-29
2022/11/11 09:38:07;;;;;;;5.83;4.37;;;;;;;;;;5111434;27;20231;-29
2022/11/11 09:40:40;;;;;;;7.00;4.97;;;;;;;;;;5111820;28;20227;-31
2022/11/11 09:43:14;;;;;;;6.73;4.63;;;;;;;;;;5103148;28;20184;-31
2022/11/11 09:45:47;;;;;;;7.30;5.10;;;;;;;;;;5108602;28;20200;-31
2022/11/11 09:48:25;;;;;;;5.77;4.90;;;;;;;;;;5112215;28;20195;-31
2022/11/11 09:50:55;;;;;;;4.93;4.53;;;;;;;;;;5107217;28;20223;-31
2022/11/11 09:53:24;;;;;;;6.23;4.90;;;;;;;;;;5112107;28;20196;-31
2022/11/11 09:55:53;;;;;;;9.67;4.90;;;;;;;;;;5111761;28;20222;-30
2022/11/11 09:58:24;;;;;;;8.90;5.00;;;;;;;;;;5104362;28;20196;-31
2022/11/11 10:00:56;;;;;;;7.50;5.00;;;;;;;;;;5100335;28;20316;-30
2022/11/11 10:03:25;;;;;;;7.40;5.27;;;;;;;;;;5098547;28;20199;-31
2022/11/11 10:05:55;;;;;;;6.80;5.17;;;;;;;;;;5099851;28;20200;-31
2022/11/11 10:08:26;;;;;;;5.43;4.93;;;;;;;;;;5101565;28;20216;-31
2022/11/11 10:11:04;;;;;;;10.27;5.63;;;;;;;;;;5109205;28;20234;-31
2022/11/11 10:13:35;;;;;;;7.30;5.73;;;;;;;;;;5107128;28;20206;-30
2022/11/11 10:16:19;;;;;;;7.70;5.70;;;;;;;;;;5103314;28;20216;-30
2022/11/11 10:18:54;;;;;;;6.57;5.50;;;;;;;;;;5111347;28;20556;-32
2022/11/11 10:21:28;;;;;;;7.60;5.80;;;;;;;;;;5108939;28;20693;-31
2022/11/11 10:24:07;;;;;;;6.47;5.07;;;;;;;;;;5110193;28;20200;-32
2022/11/11 10:26:38;;;;;;;8.43;5.63;;;;;;;;;;5106289;28;20283;-31
2022/11/11 10:29:11;;;;;;;7.40;5.10;;;;;;;;;;5103829;28;20211;-30
2022/11/11 10:31:38;;;;;;;7.47;5.90;;;;;;;;;;5113806;28;20320;-29
2022/11/11 10:34:10;;;;;;;7.27;5.27;;;;;;;;;;5110738;28;20217;-31
2022/11/11 10:36:39;;;;;;;8.27;5.93;;;;;;;;;;5101840;28;20235;-31
2022/11/11 10:39:23;;;;;;;5.80;5.17;;;;;;;;;;5113666;28;20654;-30
2022/11/11 10:41:51;;;;;;;10.60;6.20;;;;;;;;;;5110917;28;20231;-30
2022/11/11 10:44:23;;;;;;;10.97;5.57;;;;;;;;;;5106944;28;20206;-29
2022/11/11 10:46:56;;;;;;;7.53;6.10;;;;;;;;;;5115355;28;20199;-30
2022/11/11 10:49:25;;;;;;;8.80;5.97;;;;;;;;;;5112856;28;20257;-31
2022/11/11 10:51:54;;;;;;;9.50;5.77;;;;;;;;;;5105859;28;20223;-32
2022/11/11 10:54:24;;;;;;;7.33;5.83;;;;;;;;;;5115498;28;20206;-28
2022/11/11 10:56:55;;;;;;;6.23;5.53;;;;;;;;;;5112525;28;20276;-31
2022/11/11 10:59:25;;;;;;;7.37;5.47;;;;;;;;;;5107234;28;20725;-30
2022/11/11 11:01:55;;;;;;;9.47;5.20;;;;;;;;;;5110656;28;20230;-29
2022/11/11 11:04:27;;;;;;;7.23;4.70;;;;;;;;;;5110879;28;20227;-30
2022/11/11 11:06:55;;;;;;;6.83;4.43;;;;;;;;;;5106170;28;20222;-30
2022/11/11 11:09:24;;;;;;;6.00;5.27;;;;;;;;;;5115030;28;20282;-29
2022/11/11 11:11:53;;;;;;;8.00;5.93;;;;;;;;;;5115420;28;20224;-31
2022/11/11 11:14:25;;;;;;;6.90;4.77;;;;;;;;;;5109493;28;20204;-30
2022/11/11 11:16:54;;;;;;;6.83;5.70;;;;;;;;;;5092634;28;20315;-30
2022/11/11 11:19:22;;;;;;;7.50;5.93;;;;;;;;;;5102958;28;20200;-30
2022/11/11 11:21:51;;;;;;;10.30;5.97;;;;;;;;;;5092596;28;20224;-31
2022/11/11 11:24:23;;;;;;;9.40;5.90;;;;;;;;;;5105313;28;20196;-29
2022/11/11 11:26:51;;;;;;;6.80;5.67;;;;;;;;;;5105585;28;20200;-33
2022/11/11 11:29:31;;;;;;;6.80;4.93;;;;;;;;;;5110041;28;20206;-33
2022/11/11 11:32:11;;;;;;;7.63;4.77;;;;;;;;;;5098599;28;20247;-29
2022/11/11 11:34:46;;;;;;;5.40;4.50;;;;;;;;;;5101767;28;20216;-31
2022/11/11 11:37:13;;;;;;;4.40;3.60;;;;;;;;;;5105617;28;20248;-30
2022/11/11 11:39:40;;;;;;;4.77;4.03;;;;;;;;;;5108137;28;20248;-32
2022/11/11 11:42:09;;;;;;;6.17;3.93;;;;;;;;;;5111024;28;20228;-30
2022/11/11 11:44:38;;;;;;;5.60;3.93;;;;;;;;;;5106614;28;20222;-32
2022/11/11 11:47:16;;;;;;;7.47;4.53;;;;;;;;;;5114215;28;20200;-31
2022/11/11 11:49:51;;;;;;;6.53;4.87;;;;;;;;;;5109958;28;20238;-32
2022/11/11 11:52:21;;;;;;;5.97;4.33;;;;;;;;;;5114488;28;20226;-32
2022/11/11 11:54:53;;;;;;;7.63;5.30;;;;;;;;;;5109823;28;20283;-30
2022/11/11 11:57:27;;;;;;;9.07;5.87;;;;;;;;;;5113251;28;20272;-31
2022/11/11 12:00:00;;;;;;;5.97;4.60;;;;;;;;;;5110298;28;20210;-28
2022/11/11 12:02:35;;;;;;;9.90;5.80;;;;;;;;;;5110585;28;20203;-30
2022/11/11 12:05:09;;;;;;;7.67;5.30;;;;;;;;;;5108331;28;20202;-31
2022/11/11 12:07:49;;;;;;;7.60;5.27;;;;;;;;;;5107763;28;20200;-30
2022/11/11 12:10:24;;;;;;;6.27;5.10;;;;;;;;;;5112249;28;20234;-31
2022/11/11 12:12:54;;;;;;;8.83;5.23;;;;;;;;;;5112890;28;20192;-32
2022/11/11 12:15:30;;;;;;;6.97;4.77;;;;;;;;;;5106628;28;20251;-31
2022/11/11 12:18:17;;;;;;;5.10;4.50;;;;;;;;;;5112242;28;20282;-31
2022/11/11 12:20:49;;;;;;;5.00;4.03;;;;;;;;;;5104753;28;20234;-30
2022/11/11 12:23:37;;;;;;;6.47;4.70;;;;;;;;;;5104112;28;20205;-33
2022/11/11 12:26:08;;;;;;;5.00;4.13;;;;;;;;;;5103614;28;20275;-30
2022/11/11 12:28:42;;;;;;;9.07;4.57;;;;;;;;;;5106974;28;20245;-31
2022/11/11 12:31:18;;;;;;;4.60;4.13;;;;;;;;;;5112848;28;20241;-31
2022/11/11 12:33:53;;;;;;;4.00;3.53;;;;;;;;;;5114563;28;20200;-31
2022/11/11 12:36:23;;;;;;;6.30;4.37;;;;;;;;;;5108579;28;20364;-34
2022/11/11 12:38:53;;;;;;;7.47;4.70;;;;;;;;;;5109927;28;20736;-32
2022/11/11 12:41:26;;;;;;;5.20;4.20;;;;;;;;;;5094126;28;20225;-30
2022/11/11 12:44:02;;;;;;;6.57;4.37;;;;;;;;;;5105653;28;20204;-32
2022/11/11 12:46:34;;;;;;;6.40;4.60;;;;;;;;;;5106997;28;20235;-32
2022/11/11 12:49:05;;;;;;;9.43;5.00;;;;;;;;;;5113341;28;20210;-32
2022/11/11 12:51:45;;;;;;;8.70;4.37;;;;;;;;;;5108550;28;20254;-31
2022/11/11 12:54:26;;;;;;;5.83;3.70;;;;;;;;;;5112777;28;20203;-32
2022/11/11 12:56:57;;;;;;;5.43;4.10;;;;;;;;;;5123725;27;20210;-31
2022/11/11 12:59:29;;;;;;;9.07;3.67;;;;;;;;;;5107197;28;20200;-31
2022/11/11 13:02:03;;;;;;;8.20;4.43;;;;;;;;;;5112430;28;20234;-32
2022/11/11 13:04:45;;;;;;;6.10;4.37;;;;;;;;;;5104646;28;20188;-30
2022/11/11 13:07:27;;;;;;;7.27;4.43;;;;;;;;;;5106401;28;20235;-32
2022/11/11 13:10:02;;;;;;;7.37;4.37;;;;;;;;;;5111390;28;20287;-33
2022/11/11 13:12:32;;;;;;;6.17;4.00;;;;;;;;;;5114344;28;20188;-33
2022/11/11 13:15:03;;;;;;;6.00;4.33;;;;;;;;;;5102272;28;20288;-30
2022/11/11 13:17:38;;;;;;;7.57;4.53;;;;;;;;;;5105912;28;20224;-30
2022/11/11 13:20:13;;;;;;;6.80;4.40;;;;;;;;;;5111128;28;20216;-29
2022/11/11 13:22:40;;;;;;;5.70;4.40;;;;;;;;;;5102282;28;20286;-32
2022/11/11 13:25:08;;;;;;;7.00;4.60;;;;;;;;;;5113427;28;20283;-32
2022/11/11 13:27:39;;;;;;;5.00;4.37;;;;;;;;;;5099919;28;20480;-31
2022/11/11 13:30:11;;;;;;;5.17;4.33;;;;;;;;;;5110254;28;20329;-29
2022/11/11 13:32:42;;;;;;;5.83;4.40;;;;;;;;;;5113251;28;20200;-30
2022/11/11 13:35:19;;;;;;;5.20;4.70;;;;;;;;;;5108149;28;20290;-30
2022/11/11 13:37:49;;;;;;;5.60;4.13;;;;;;;;;;5101404;28;20201;-33
2022/11/11 13:40:27;;;;;;;7.97;4.67;;;;;;;;;;5104007;28;20235;-30
2022/11/11 13:42:54;;;;;;;7.07;4.37;;;;;;;;;;5109252;28;20192;-31
2022/11/11 13:45:24;;;;;;;5.83;4.07;;;;;;;;;;5109732;28;20208;-31
2022/11/11 13:47:53;;;;;;;6.67;4.37;;;;;;;;;;5101983;28;20218;-28
2022/11/11 13:50:24;;;;;;;6.37;5.00;;;;;;;;;;5105438;28;20220;-31
2022/11/11 13:52:56;;;;;;;5.57;4.50;;;;;;;;;;5108854;28;20290;-31
2022/11/11 13:55:27;;;;;;;6.93;5.07;;;;;;;;;;5110291;27;20212;-31
2022/11/11 13:57:54;;;;;;;8.17;5.27;;;;;;;;;;5115832;27;20275;-30
2022/11/11 14:00:26;;;;;;;6.60;5.17;;;;;;;;;;5107048;28;20354;-29
2022/11/11 14:03:08;;;;;;;8.53;4.77;;;;;;;;;;5108054;28;20204;-31
2022/11/11 14:05:36;;;;;;;6.07;4.60;;;;;;;;;;5103460;28;20282;-31
2022/11/11 14:08:04;;;;;;;7.47;4.70;;;;;;;;;;5112657;28;20214;-32
2022/11/11 14:10:51;;;;;;;6.57;4.80;;;;;;;;;;5112853;28;20215;-32
2022/11/11 14:13:37;;;;;;;5.47;4.37;;;;;;;;;;5111176;28;20206;-32
2022/11/11 14:16:05;;;;;;;5.10;4.60;;;;;;;;;;5100790;28;20307;-32
2022/11/11 14:18:40;;;;;;;4.80;3.83;;;;;;;;;;5109624;28;20211;-32
2022/11/11 14:21:09;;;;;;;6.77;4.50;;;;;;;;;;5108159;28;20254;-30
2022/11/11 14:23:38;;;;;;;5.03;3.90;;;;;;;;;;5108515;28;20212;-29
2022/11/11 14:26:24;;;;;;;6.57;4.33;;;;;;;;;;5112491;28;20310;-28
2022/11/11 14:28:53;;;;;;;6.63;4.40;;;;;;;;;;5108952;28;20200;-31
2022/11/11 14:31:46;;;;;;;6.30;4.50;;;;;;;;;;5110274;28;20242;-29
2022/11/11 14:34:19;;;;;;;7.67;4.77;;;;;;;;;;5109759;28;20203;-32
2022/11/11 14:36:50;;;;;;;10.03;5.03;;;;;;;;;;5106138;28;20227;-32
2022/11/11 14:39:25;;;;;;;7.00;4.73;;;;;;;;;;5112482;28;20207;-30
2022/11/11 14:41:53;;;;;;;8.00;4.90;;;;;;;;;;5109945;28;20225;-31
2022/11/11 14:44:35;;;;;;;9.70;4.70;;;;;;;;;;5109707;28;20211;-32
2022/11/11 14:47:20;;;;;;;7.43;4.33;;;;;;;;;;5092180;28;20203;-33
2022/11/11 14:49:58;;;;;;;6.97;5.03;;;;;;;;;;5104488;28;20303;-31
2022/11/11 14:52:33;;;;;;;6.50;4.83;;;;;;;;;;5110542;28;20196;-31
2022/11/11 14:55:05;;;;;;;6.17;4.33;;;;;;;;;;5111463;28;20203;-28
2022/11/11 14:57:35;;;;;;;6.67;4.60;;;;;;;;;;5110156;28;20204;-34
2022/11/11 15:00:03;;;;;;;6.40;4.70;;;;;;;;;;5105619;28;20244;-32
2022/11/11 15:02:31;;;;;;;6.33;4.50;;;;;;;;;;5112707;28;20202;-32
2022/11/11 15:05:02;;;;;;;7.93;4.50;;;;;;;;;;5106022;28;20295;-29
2022/11/11 15:07:33;;;;;;;5.83;4.80;;;;;;;;;;5110436;28;20196;-32
2022/11/11 15:10:18;;;;;;;6.63;4.50;;;;;;;;;;5113458;28;20256;-31
2022/11/11 15:12:53;;;;;;;12.13;5.40;;;;;;;;;;5098818;28;20290;-32
2022/11/11 15:15:23;;;;;;;6.87;4.63;;;;;;;;;;5103370;28;20202;-30
2022/11/11 15:17:58;;;;;;;7.17;5.13;;;;;;;;;;5109599;28;20228;-31
2022/11/11 15:20:35;;;;;;;6.40;4.50;;;;;;;;;;5094007;28;20243;-30
2022/11/11 15:23:09;;;;;;;10.60;6.07;;;;;;;;;;5114705;28;20749;-33
2022/11/11 15:25:42;;;;;;;6.20;4.93;;;;;;;;;;5110518;28;20291;-31
2022/11/11 15:28:15;;;;;;;8.10;5.43;;;;;;;;;;5097200;28;20203;-33
2022/11/11 15:30:48;;;;;;;7.03;4.87;;;;;;;;;;5113412;28;20223;-32
2022/11/11 15:33:18;;;;;;;7.80;5.30;;;;;;;;;;5110518;27;20197;-30
2022/11/11 15:35:49;;;;;;;8.53;5.07;;;;;;;;;;5103026;27;20303;-29
2022/11/11 15:38:21;;;;;;;6.67;5.03;;;;;;;;;;5099200;28;20244;-32
2022/11/11 15:40:49;;;;;;;5.53;4.87;;;;;;;;;;5110446;28;20263;-29
2022/11/11 15:43:19;;;;;;;7.27;4.47;;;;;;;;;;5114714;28;20253;-30
2022/11/11 15:45:46;;;;;;;4.93;3.87;;;;;;;;;;5115745;28;20204;-33
2022/11/11 15:48:18;;;;;;;6.00;4.40;;;;;;;;;;5110041;28;20199;-31
2022/11/11 15:50:45;;;;;;;7.50;4.07;;;;;;;;;;5112859;28;20227;-33
2022/11/11 15:53:22;;;;;;;7.07;4.07;;;;;;;;;;5115335;28;20212;-32
2022/11/11 15:55:54;;;;;;;4.87;3.50;;;;;;;;;;5108198;28;20236;-30
2022/11/11 15:58:30;;;;;;;7.60;3.83;;;;;;;;;;5113964;28;20244;-33
2022/11/11 16:00:58;;;;;;;3.67;3.27;;;;;;;;;;5110794;28;20267;-31
2022/11/11 16:03:32;;;;;;;6.53;3.33;;;;;;;;;;5115841;28;20207;-33
2022/11/11 16:06:18;;;;;;;4.80;3.10;;;;;;;;;;5108588;28;20291;-31
2022/11/11 16:08:46;;;;;;;3.70;3.20;;;;;;;;;;5115407;28;20283;-31
2022/11/11 16:11:16;;;;;;;7.43;3.47;;;;;;;;;;5115615;28;20219;-30
2022/11/11 16:13:47;;;;;;;4.93;3.53;;;;;;;;;;5108040;28;20287;-31
2022/11/11 16:16:16;;;;;;;4.47;3.70;;;;;;;;;;5104013;28;20253;-31
2022/11/11 16:18:45;;;;;;;5.37;2.90;;;;;;;;;;5108502;28;20199;-32
2022/11/11 16:21:15;;;;;;;3.83;3.30;;;;;;;;;;5101146;28;20308;-32
2022/11/11 16:23:42;;;;;;;7.30;4.27;;;;;;;;;;5115506;28;20207;-31
2022/11/11 16:26:10;;;;;;;5.50;3.20;;;;;;;;;;5114991;28;20289;-31
2022/11/11 16:28:40;;;;;;;4.63;3.47;;;;;;;;;;5109688;28;20205;-32